createdAt,value
2023-03-07T00:03:31.544Z,21.10
2023-03-07T00:07:14.730Z,20.00
2023-03-07T00:11:01.853Z,16.57
2023-03-07T00:14:44.616Z,18.30
2023-03-07T00:18:27.351Z,19.20
2023-03-07T00:22:10.162Z,20.80
2023-03-07T00:25:59.697Z,19.93
2023-03-07T00:29:42.485Z,21.30
2023-03-07T00:33:25.205Z,20.00
2023-03-07T00:37:08.221Z,20.93
2023-03-07T00:40:59.515Z,19.47
2023-03-07T00:44:42.218Z,19.60
2023-03-07T00:48:25.025Z,17.60
2023-03-07T00:52:07.865Z,18.47
2023-03-07T00:56:00.269Z,20.37
2023-03-07T00:59:42.965Z,16.30
2023-03-07T01:03:26.230Z,19.10
2023-03-07T01:07:08.863Z,18.83
2023-03-07T01:10:51.707Z,18.73
2023-03-07T01:14:35.853Z,18.50
2023-03-07T01:18:18.535Z,19.80
2023-03-07T01:22:01.357Z,19.50
2023-03-07T01:25:44.708Z,15.70
2023-03-07T01:29:27.457Z,17.97
2023-03-07T01:33:11.525Z,17.03
2023-03-07T01:36:54.278Z,17.50
2023-03-07T01:40:39.373Z,15.87
2023-03-07T01:44:25.096Z,14.70
2023-03-07T01:48:07.795Z,19.50
2023-03-07T01:51:54.441Z,16.53
2023-03-07T01:55:37.996Z,17.77
2023-03-07T01:59:25.994Z,17.23
2023-03-07T02:03:13.570Z,17.77
2023-03-07T02:06:57.713Z,15.60
2023-03-07T02:10:41.590Z,19.20
2023-03-07T02:14:24.864Z,16.93
2023-03-07T02:18:08.892Z,16.07
2023-03-07T02:21:59.057Z,16.10
2023-03-07T02:25:43.824Z,17.17
2023-03-07T02:29:28.424Z,13.47
2023-03-07T02:33:11.670Z,13.77
2023-03-07T02:36:56.054Z,16.87
2023-03-07T02:40:40.042Z,15.90
2023-03-07T02:44:22.890Z,15.17
2023-03-07T02:48:07.508Z,18.10
2023-03-07T02:51:50.207Z,14.87
2023-03-07T02:55:33.772Z,17.37
2023-03-07T02:59:16.465Z,16.77
2023-03-07T03:02:59.137Z,16.40
2023-03-07T03:06:43.186Z,17.43
2023-03-07T03:10:25.920Z,13.40
2023-03-07T03:14:08.686Z,17.30
2023-03-07T03:17:54.369Z,16.20
2023-03-07T03:21:37.076Z,16.80
2023-03-07T03:25:23.150Z,16.37
2023-03-07T03:29:06.612Z,15.20
2023-03-07T03:32:49.402Z,14.93
2023-03-07T03:36:32.431Z,14.67
2023-03-07T03:40:17.793Z,17.03
2023-03-07T03:44:01.785Z,16.40
2023-03-07T03:47:44.484Z,13.47
2023-03-07T03:51:27.172Z,15.93
2023-03-07T03:55:10.620Z,14.80
2023-03-07T03:58:55.224Z,14.40
2023-03-07T04:02:39.566Z,17.87
2023-03-07T04:06:24.592Z,13.83
2023-03-07T04:10:08.212Z,15.50
2023-03-07T04:13:51.132Z,18.47
2023-03-07T04:17:33.815Z,14.70
2023-03-07T04:21:17.883Z,17.27
2023-03-07T04:25:00.499Z,16.33
2023-03-07T04:28:44.953Z,14.60
2023-03-07T04:32:27.731Z,17.93
2023-03-07T04:36:11.151Z,15.90
2023-03-07T04:39:55.177Z,22.20
2023-03-07T04:43:37.879Z,18.03
2023-03-07T04:47:20.585Z,16.13
2023-03-07T04:51:03.318Z,15.43
2023-03-07T04:54:46.026Z,16.77
2023-03-07T04:58:30.925Z,17.67
2023-03-07T05:02:14.258Z,16.33
2023-03-07T05:05:56.970Z,17.97
2023-03-07T05:09:39.669Z,22.97
2023-03-07T05:13:22.425Z,16.63
2023-03-07T05:17:06.591Z,23.33
2023-03-07T05:20:49.919Z,16.23
2023-03-07T05:24:32.616Z,18.37
2023-03-07T05:28:16.883Z,18.07
2023-03-07T05:31:59.843Z,21.77
2023-03-07T05:35:44.081Z,19.73
2023-03-07T05:39:27.698Z,20.00
2023-03-07T05:43:10.372Z,21.30
2023-03-07T05:46:53.020Z,22.47
2023-03-07T05:50:39.036Z,21.43
2023-03-07T05:54:26.116Z,18.97
2023-03-07T05:58:09.022Z,18.37
2023-03-07T06:01:51.691Z,19.53
2023-03-07T06:05:34.344Z,22.37
2023-03-07T06:09:17.045Z,20.97
2023-03-07T06:13:01.324Z,19.97
2023-03-07T06:16:44.309Z,18.93
2023-03-07T06:20:27.005Z,20.20
2023-03-07T06:24:10.274Z,20.60
2023-03-07T06:27:53.053Z,21.97
2023-03-07T06:31:38.367Z,25.53
2023-03-07T06:35:21.475Z,21.97
2023-03-07T06:39:04.524Z,21.13
2023-03-07T06:42:47.211Z,18.47
2023-03-07T06:46:30.304Z,23.77
2023-03-07T06:50:23.760Z,21.63
2023-03-07T06:54:12.752Z,23.67
2023-03-07T06:57:56.532Z,22.50
2023-03-07T07:01:39.305Z,21.27
2023-03-07T07:05:23.360Z,21.57
2023-03-07T07:09:06.149Z,24.13
2023-03-07T07:12:49.438Z,20.20
2023-03-07T07:16:33.739Z,21.30
2023-03-07T07:20:16.668Z,21.17
2023-03-07T07:24:00.723Z,19.70
2023-03-07T07:27:43.415Z,18.00
2023-03-07T07:31:26.204Z,18.33
2023-03-07T07:35:09.846Z,21.07
2023-03-07T07:38:52.627Z,19.83
2023-03-07T07:42:36.676Z,20.40
2023-03-07T07:46:19.360Z,19.77
2023-03-07T07:50:02.023Z,22.00
2023-03-07T07:53:44.822Z,19.47
2023-03-07T07:57:27.574Z,18.30
2023-03-07T08:01:16.094Z,20.77
2023-03-07T08:04:58.931Z,17.90
2023-03-07T08:08:41.767Z,19.07
2023-03-07T08:12:25.970Z,16.33
2023-03-07T08:16:11.124Z,20.67
2023-03-07T08:19:55.269Z,16.27
2023-03-07T08:23:38.037Z,18.37
2023-03-07T08:27:20.738Z,15.87
2023-03-07T08:31:07.906Z,15.60
2023-03-07T08:34:50.600Z,15.27
2023-03-07T08:38:34.851Z,14.07
2023-03-07T08:42:17.573Z,14.33
2023-03-07T08:46:00.776Z,15.30
2023-03-07T08:49:43.555Z,22.50
2023-03-07T08:53:26.208Z,16.47
2023-03-07T08:57:10.687Z,14.30
2023-03-07T09:00:53.385Z,18.80
2023-03-07T09:04:36.128Z,13.67
2023-03-07T09:08:18.873Z,14.93
2023-03-07T09:12:01.549Z,13.30
2023-03-07T09:15:46.064Z,14.13
2023-03-07T09:19:28.743Z,15.07
2023-03-07T09:23:11.784Z,15.10
2023-03-07T09:26:54.468Z,14.27
2023-03-07T09:30:38.197Z,17.30
2023-03-07T09:34:22.380Z,13.77
2023-03-07T09:38:05.358Z,15.63
2023-03-07T09:41:56.842Z,15.53
2023-03-07T09:45:47.218Z,16.13
2023-03-07T09:49:33.250Z,19.73
2023-03-07T09:53:20.656Z,16.27
2023-03-07T09:57:03.842Z,18.17
2023-03-07T10:00:46.934Z,16.90
2023-03-07T10:04:35.257Z,16.53
2023-03-07T10:08:19.763Z,16.63
2023-03-07T10:12:19.184Z,15.53
2023-03-07T10:16:03.331Z,15.80
2023-03-07T10:19:50.869Z,14.40
2023-03-07T10:23:42.317Z,14.23
2023-03-07T10:27:28.391Z,19.57
2023-03-07T10:31:19.494Z,18.10
2023-03-07T10:35:16.944Z,14.87
2023-03-07T10:39:04.823Z,19.40
2023-03-07T10:42:48.574Z,15.10
2023-03-07T10:46:31.813Z,17.57
2023-03-07T10:50:25.468Z,15.67
2023-03-07T10:54:14.846Z,16.70
2023-03-07T10:58:13.520Z,15.43
2023-03-07T11:01:58.917Z,17.87
2023-03-07T11:05:48.595Z,20.77
2023-03-07T11:09:32.617Z,17.83
2023-03-07T11:13:16.899Z,17.10
2023-03-07T11:17:01.155Z,17.10
2023-03-07T11:20:50.406Z,17.20
2023-03-07T11:24:38.474Z,16.27
2023-03-07T11:28:30.930Z,18.87
2023-03-07T11:32:15.283Z,19.27
2023-03-07T11:36:02.314Z,17.57
2023-03-07T11:39:49.367Z,16.87
2023-03-07T11:43:47.815Z,18.53
2023-03-07T11:47:37.538Z,17.57
2023-03-07T11:51:33.233Z,17.80
2023-03-07T11:55:25.911Z,17.97
2023-03-07T11:59:39.688Z,17.03
2023-03-07T12:03:38.675Z,18.43
2023-03-07T12:07:39.850Z,16.70
2023-03-07T12:11:40.535Z,20.70
2023-03-07T12:15:29.426Z,16.37
2023-03-07T12:19:39.994Z,15.67
2023-03-07T12:23:27.818Z,16.40
2023-03-07T12:27:14.245Z,17.87
2023-03-07T12:31:06.766Z,21.80
2023-03-07T12:34:54.146Z,16.30
2023-03-07T12:38:41.531Z,17.87
2023-03-07T12:42:32.218Z,18.93
2023-03-07T12:46:19.013Z,14.93
2023-03-07T12:50:06.204Z,15.57
2023-03-07T12:53:55.097Z,15.87
2023-03-07T12:57:43.614Z,15.70
2023-03-07T13:01:29.326Z,17.07
2023-03-07T13:05:20.169Z,17.57
2023-03-07T13:09:04.749Z,17.30
2023-03-07T13:12:48.077Z,16.17
2023-03-07T13:16:41.963Z,16.47
2023-03-07T13:20:44.832Z,16.03
2023-03-07T13:24:36.753Z,13.43
2023-03-07T13:28:52.655Z,14.57
2023-03-07T13:32:56.975Z,16.87
2023-03-07T13:36:39.950Z,15.30
2023-03-07T13:40:49.448Z,13.67
2023-03-07T13:44:39.215Z,13.93
2023-03-07T13:48:55.490Z,15.80
2023-03-07T13:52:45.209Z,16.73
2023-03-07T13:56:30.754Z,16.10
2023-03-07T14:00:24.524Z,16.70
2023-03-07T14:04:12.467Z,15.73
2023-03-07T14:07:55.209Z,15.77
2023-03-07T14:11:42.318Z,16.33
2023-03-07T14:15:27.491Z,15.77
2023-03-07T14:19:16.333Z,11.97
2023-03-07T14:23:10.554Z,15.47
2023-03-07T14:26:57.759Z,14.20
2023-03-07T14:30:40.721Z,15.83
2023-03-07T14:34:28.406Z,14.33
2023-03-07T14:38:18.722Z,15.90
2023-03-07T14:42:10.402Z,16.90
2023-03-07T14:45:57.362Z,17.77
2023-03-07T14:49:44.823Z,15.27
2023-03-07T14:53:28.268Z,15.47
2023-03-07T14:57:17.252Z,14.90
2023-03-07T15:01:00.599Z,13.30
2023-03-07T15:04:43.324Z,17.13
2023-03-07T15:08:28.251Z,15.43
2023-03-07T15:12:15.881Z,12.40
2023-03-07T15:16:00.654Z,18.00
2023-03-07T15:19:47.949Z,12.80
2023-03-07T15:23:31.451Z,15.50
2023-03-07T15:27:19.909Z,17.70
2023-03-07T15:31:03.350Z,12.30
2023-03-07T15:34:46.080Z,14.13
2023-03-07T15:38:33.386Z,16.27
2023-03-07T15:42:22.328Z,14.50
2023-03-07T15:46:07.205Z,14.87
2023-03-07T15:49:51.729Z,15.30
2023-03-07T15:53:36.323Z,13.83
2023-03-07T15:57:22.033Z,15.40
2023-03-07T16:01:08.479Z,13.87
2023-03-07T16:04:53.526Z,15.67
2023-03-07T16:08:36.264Z,14.63
2023-03-07T16:12:20.963Z,15.63
2023-03-07T16:16:09.159Z,19.80
2023-03-07T16:19:51.830Z,14.07
2023-03-07T16:23:34.995Z,15.50
2023-03-07T16:27:19.950Z,15.67
2023-03-07T16:31:03.142Z,15.30
2023-03-07T16:34:48.745Z,14.93
2023-03-07T16:38:31.459Z,15.23
2023-03-07T16:42:23.484Z,18.00
2023-03-07T16:46:07.880Z,16.20
2023-03-07T16:49:52.078Z,13.13
2023-03-07T16:53:34.756Z,17.13
2023-03-07T16:57:18.196Z,14.37
2023-03-07T17:01:01.247Z,17.90
2023-03-07T17:04:44.496Z,38.67
2023-03-07T17:08:28.635Z,81.53
2023-03-07T17:12:11.519Z,124.17
2023-03-07T17:15:54.399Z,58.07
2023-03-07T17:19:37.134Z,29.80
2023-03-07T17:23:22.285Z,32.30
2023-03-07T17:27:06.674Z,21.77
2023-03-07T17:30:50.024Z,20.07
2023-03-07T17:34:34.165Z,19.50
2023-03-07T17:38:16.881Z,19.00
2023-03-07T17:42:00.017Z,28.73
2023-03-07T17:45:44.108Z,17.13
2023-03-07T17:49:33.438Z,16.83
2023-03-07T17:53:16.126Z,17.03
2023-03-07T17:56:58.817Z,16.47
2023-03-07T18:00:41.557Z,17.27
2023-03-07T18:04:28.399Z,18.20
2023-03-07T18:08:11.392Z,20.93
2023-03-07T18:11:54.429Z,16.60
2023-03-07T18:15:37.065Z,21.73
2023-03-07T18:19:26.148Z,17.00
2023-03-07T18:23:11.204Z,16.40
2023-03-07T18:26:54.308Z,20.37
2023-03-07T18:30:36.982Z,20.23
2023-03-07T18:34:20.159Z,19.23
2023-03-07T18:38:04.170Z,23.00
2023-03-07T18:41:49.513Z,22.90
2023-03-07T18:45:32.169Z,23.90
2023-03-07T18:49:16.032Z,24.63
2023-03-07T18:53:01.270Z,21.93
2023-03-07T18:56:47.840Z,30.50
2023-03-07T19:00:30.613Z,26.33
2023-03-07T19:04:13.318Z,17.70
2023-03-07T19:07:56.016Z,21.50
2023-03-07T19:11:38.714Z,20.13
2023-03-07T19:15:22.762Z,21.57
2023-03-07T19:19:05.681Z,24.23
2023-03-07T19:22:48.379Z,19.80
2023-03-07T19:26:31.141Z,21.43
2023-03-07T19:30:15.065Z,20.63
2023-03-07T19:33:59.614Z,20.30
2023-03-07T19:37:42.353Z,22.20
2023-03-07T19:41:26.803Z,19.37
2023-03-07T19:45:10.167Z,22.90
2023-03-07T19:48:52.876Z,19.43
2023-03-07T19:52:37.080Z,21.93
2023-03-07T19:56:21.472Z,20.57
2023-03-07T20:00:04.733Z,25.23
2023-03-07T20:03:48.305Z,17.23
2023-03-07T20:07:30.991Z,20.27
2023-03-07T20:11:16.627Z,22.80
2023-03-07T20:14:59.284Z,22.60
2023-03-07T20:18:42.052Z,17.60
2023-03-07T20:22:25.839Z,24.23
2023-03-07T20:26:10.200Z,17.20
2023-03-07T20:29:55.457Z,18.23
2023-03-07T20:33:38.799Z,17.63
2023-03-07T20:37:21.505Z,16.10
2023-03-07T20:41:06.755Z,18.63
2023-03-07T20:44:49.443Z,20.90
2023-03-07T20:48:33.529Z,16.73
2023-03-07T20:52:16.429Z,18.67
2023-03-07T20:56:02.466Z,17.30
2023-03-07T20:59:45.145Z,15.87
2023-03-07T21:03:28.241Z,19.50
2023-03-07T21:07:12.485Z,19.60
2023-03-07T21:11:02.496Z,18.10
2023-03-07T21:14:45.196Z,17.40
2023-03-07T21:18:28.589Z,18.50
2023-03-07T21:22:12.697Z,18.83
2023-03-07T21:26:01.277Z,20.90
2023-03-07T21:29:46.437Z,19.80
2023-03-07T21:33:29.420Z,19.20
2023-03-07T21:37:13.533Z,21.63
2023-03-07T21:40:56.811Z,22.97
2023-03-07T21:44:39.624Z,24.20
2023-03-07T21:48:22.652Z,22.63
2023-03-07T21:52:05.404Z,22.80
2023-03-07T21:55:52.717Z,19.70
2023-03-07T21:59:36.421Z,20.47
2023-03-07T22:03:19.856Z,22.10
2023-03-07T22:07:05.304Z,21.93
2023-03-07T22:11:00.077Z,19.23
2023-03-07T22:14:42.768Z,20.07
2023-03-07T22:18:26.023Z,22.33
2023-03-07T22:22:08.787Z,19.50
2023-03-07T22:25:53.917Z,22.03
2023-03-07T22:29:38.330Z,19.77
2023-03-07T22:33:20.994Z,21.20
2023-03-07T22:37:03.791Z,20.13
2023-03-07T22:40:46.455Z,19.50
2023-03-07T22:44:29.364Z,20.03
2023-03-07T22:48:13.404Z,20.47
2023-03-07T22:51:56.117Z,23.57
2023-03-07T22:55:42.549Z,22.53
2023-03-07T22:59:25.251Z,20.00
2023-03-07T23:03:08.058Z,21.93
2023-03-07T23:06:52.070Z,21.27
2023-03-07T23:10:37.945Z,21.10
2023-03-07T23:14:20.614Z,21.77
2023-03-07T23:18:03.843Z,21.33
2023-03-07T23:21:47.739Z,22.43
2023-03-07T23:25:33.810Z,20.63
2023-03-07T23:29:18.042Z,19.77
2023-03-07T23:33:02.823Z,19.90
2023-03-07T23:36:45.885Z,21.50
2023-03-07T23:40:28.741Z,22.37
2023-03-07T23:44:13.131Z,20.20
2023-03-07T23:47:55.977Z,21.53
2023-03-07T23:51:38.741Z,22.17
2023-03-07T23:55:21.504Z,17.27
2023-03-07T23:59:04.188Z,16.67
